LTAU/ASR METAR and TAF weather

Enter ICAO airport designator
Station Type Date Time Source
LTAU METAR 2022/06/30 13:50 UTC NOAA

LTAU 301350Z 36006KT 310V080 9999 BKN040 28/12 Q1010 NOSIG


Station Type Date Time Source
LTAU Decoded METAR 2022/06/30 13:50 UTC NOAA

Kayseri / Erkilet, Turkey (LTAU) 38-47N 035-29E 1054M
Jun 30, 2022 - 09:50 AM EDT / 2022.06.30 1350 UTC
Wind: from the N (360 degrees) at 7 MPH (6 KT) (direction variable):0
Visibility: greater than 7 mile(s):0
Sky conditions: mostly cloudy
Temperature: 82 F (28 C)
Dew Point: 53 F (12 C)
Relative Humidity: 37%
Pressure (altimeter): 29.83 in. Hg (1010 hPa)
ob: LTAU 301350Z 36006KT 310V080 9999 BKN040 28/12 Q1010 NOSIG
cycle: 14

Station Type Date Time Source
LTAU TAF 2022/06/30 12:03 UTC NOAA

TAF LTAU 301040Z 3012/0112 VRB02KT 9999 SCT040 SCT100
TEMPO 3012/3015 31012KT PROB40
TEMPO 3015/3019 30015G25KT -TSRA FEW027CB BKN030 PROB40 0100/0104 BKN020

Example: see airport list